createdAt,value
2018-07-03T00:01:50.098Z,57.40
2018-07-03T00:04:17.462Z,57.20
2018-07-03T00:06:45.474Z,57.60
2018-07-03T00:09:13.562Z,58.30
2018-07-03T00:11:40.917Z,58.60
2018-07-03T00:14:08.282Z,58.70
2018-07-03T00:16:41.125Z,58.70
2018-07-03T00:19:08.497Z,59.00
2018-07-03T00:21:35.862Z,59.10
2018-07-03T00:24:03.217Z,59.50
2018-07-03T00:26:30.582Z,60.20
2018-07-03T00:28:57.946Z,58.90
2018-07-03T00:33:52.486Z,58.60
2018-07-03T00:36:19.867Z,58.90
2018-07-03T00:41:14.418Z,60.20
2018-07-03T00:43:41.793Z,59.40
2018-07-03T00:46:09.848Z,59.20
2018-07-03T00:51:05.850Z,59.40
2018-07-03T00:53:33.861Z,59.60
2018-07-03T00:56:01.983Z,60.00
2018-07-03T01:00:57.806Z,60.40
2018-07-03T01:03:25.813Z,60.70
2018-07-03T01:05:53.825Z,60.60
2018-07-03T01:08:21.842Z,60.40
2018-07-03T01:10:49.856Z,60.00
2018-07-03T01:13:17.866Z,59.80
2018-07-03T01:18:13.759Z,59.60
2018-07-03T01:20:41.775Z,59.70
2018-07-03T01:23:09.862Z,59.70
2018-07-03T01:25:37.879Z,60.00
2018-07-03T01:28:05.905Z,59.30
2018-07-03T01:30:33.934Z,59.10
2018-07-03T01:33:01.955Z,59.50
2018-07-03T01:35:29.990Z,59.80
2018-07-03T01:37:57.998Z,59.80
2018-07-03T01:40:26.006Z,59.80
2018-07-03T01:42:54.019Z,61.40
2018-07-03T01:45:22.037Z,60.80
2018-07-03T01:47:50.174Z,59.20
2018-07-03T01:50:18.199Z,59.40
2018-07-03T01:55:13.362Z,60.30
2018-07-03T01:57:41.369Z,59.20
2018-07-03T02:00:09.382Z,59.50
2018-07-03T02:02:37.394Z,59.60
2018-07-03T02:05:05.409Z,60.80
2018-07-03T02:07:33.446Z,59.90
2018-07-03T02:10:01.472Z,59.90
2018-07-03T02:12:29.486Z,60.50
2018-07-03T02:14:57.502Z,59.50
2018-07-03T02:17:24.864Z,59.50
2018-07-03T02:22:20.711Z,60.10
2018-07-03T02:24:48.731Z,59.80
2018-07-03T02:27:16.759Z,59.80
2018-07-03T02:29:44.767Z,59.80
2018-07-03T02:32:12.782Z,60.80
2018-07-03T02:37:08.594Z,60.20
2018-07-03T02:39:36.614Z,60.40
2018-07-03T02:42:04.995Z,60.20
2018-07-03T02:44:33.015Z,60.60
2018-07-03T02:47:01.048Z,59.50
2018-07-03T02:49:29.078Z,59.40
2018-07-03T02:54:24.241Z,60.00
2018-07-03T02:56:51.601Z,60.40
2018-07-03T02:59:18.966Z,59.90
2018-07-03T03:01:46.324Z,59.90
2018-07-03T03:04:13.695Z,59.80
2018-07-03T03:06:41.053Z,59.70
2018-07-03T03:09:10.027Z,60.20
2018-07-03T03:11:37.390Z,60.60
2018-07-03T03:14:05.444Z,59.90
2018-07-03T03:16:32.837Z,60.80
2018-07-03T03:19:00.210Z,60.70
2018-07-03T03:21:28.230Z,60.90
2018-07-03T03:23:55.595Z,61.30
2018-07-03T03:26:22.962Z,61.70
2018-07-03T03:28:50.317Z,62.50
2018-07-03T03:31:17.682Z,61.40
2018-07-03T03:33:45.046Z,60.60
2018-07-03T03:36:12.410Z,60.80
2018-07-03T03:38:40.008Z,60.70
2018-07-03T03:41:08.253Z,61.80
2018-07-03T03:43:36.522Z,62.00
2018-07-03T03:46:03.885Z,61.70
2018-07-03T03:48:31.301Z,63.80
2018-07-03T03:50:58.686Z,62.40
2018-07-03T03:53:26.081Z,61.80
2018-07-03T03:55:53.465Z,60.90
2018-07-03T04:00:48.798Z,61.20
2018-07-03T04:03:16.787Z,61.70
2018-07-03T04:05:44.807Z,61.90
2018-07-03T04:08:12.824Z,62.70
2018-07-03T04:10:40.838Z,63.20
2018-07-03T04:13:08.199Z,62.80
2018-07-03T04:15:36.239Z,62.70
2018-07-03T04:18:04.246Z,63.10
2018-07-03T04:20:32.290Z,63.20
2018-07-03T04:23:00.303Z,63.40
2018-07-03T04:25:28.317Z,64.80
2018-07-03T04:27:56.330Z,64.50
2018-07-03T04:30:24.347Z,64.10
2018-07-03T04:32:52.362Z,66.50
2018-07-03T04:35:19.725Z,67.10
2018-07-03T04:37:47.082Z,65.40
2018-07-03T04:40:14.446Z,64.90
2018-07-03T04:42:42.455Z,66.30
2018-07-03T04:45:09.813Z,69.50
2018-07-03T04:47:37.170Z,66.10
2018-07-03T04:50:05.204Z,65.20
2018-07-03T04:52:32.706Z,68.80
2018-07-03T04:55:00.722Z,67.00
2018-07-03T04:57:28.759Z,64.10
2018-07-03T04:59:56.775Z,63.50
2018-07-03T05:02:24.792Z,65.20
2018-07-03T05:04:52.166Z,64.50
2018-07-03T05:07:20.185Z,68.40
2018-07-03T05:09:48.195Z,68.00
2018-07-03T05:14:44.014Z,69.50
2018-07-03T05:17:12.030Z,67.20
2018-07-03T05:19:39.382Z,65.00
2018-07-03T05:22:06.743Z,66.40
2018-07-03T05:24:34.138Z,66.00
2018-07-03T05:27:01.494Z,63.70
2018-07-03T05:29:28.854Z,63.70
2018-07-03T05:31:56.866Z,63.40
2018-07-03T05:34:24.885Z,63.90
2018-07-03T05:36:53.094Z,65.60
2018-07-03T05:39:20.461Z,64.90
2018-07-03T05:41:47.809Z,66.00
2018-07-03T05:44:15.175Z,66.30
2018-07-03T05:46:42.529Z,67.90
2018-07-03T05:49:10.618Z,66.00
2018-07-03T05:51:37.985Z,64.80
2018-07-03T05:54:05.994Z,66.40
2018-07-03T05:56:33.391Z,62.20
2018-07-03T05:59:00.836Z,62.30
2018-07-03T06:01:28.199Z,64.60
2018-07-03T06:03:55.616Z,64.10
2018-07-03T06:06:22.933Z,66.20
2018-07-03T06:11:17.467Z,64.60
2018-07-03T06:13:45.491Z,64.90
2018-07-03T06:16:13.503Z,64.10
2018-07-03T06:18:41.511Z,63.90
2018-07-03T06:21:09.526Z,63.90
2018-07-03T06:23:37.539Z,65.50
2018-07-03T06:26:05.555Z,63.60
2018-07-03T06:28:33.745Z,64.70
2018-07-03T06:33:29.408Z,63.70
2018-07-03T06:35:57.418Z,62.40
2018-07-03T06:38:24.782Z,64.00
2018-07-03T06:40:52.150Z,63.50
2018-07-03T06:43:19.510Z,62.10
2018-07-03T06:45:47.527Z,62.50
2018-07-03T06:48:14.877Z,64.30
2018-07-03T06:50:42.234Z,62.70
2018-07-03T06:53:10.259Z,62.50
2018-07-03T06:55:38.262Z,61.50
2018-07-03T06:58:06.270Z,61.00
2018-07-03T07:03:01.535Z,61.40
2018-07-03T07:05:28.923Z,62.60
2018-07-03T07:07:56.948Z,64.10
2018-07-03T07:10:24.961Z,63.20
2018-07-03T07:12:52.330Z,62.80
2018-07-03T07:15:19.690Z,62.80
2018-07-03T07:17:47.707Z,63.20
2018-07-03T07:20:15.735Z,62.40
2018-07-03T07:22:43.750Z,61.60
2018-07-03T07:25:11.109Z,61.10
2018-07-03T07:30:06.451Z,61.20
2018-07-03T07:32:33.798Z,61.80
2018-07-03T07:35:01.186Z,59.30
2018-07-03T07:37:29.213Z,60.20
2018-07-03T07:39:57.218Z,60.70
2018-07-03T07:42:25.238Z,59.80
2018-07-03T07:44:53.359Z,62.30
2018-07-03T07:47:21.379Z,60.30
2018-07-03T07:49:49.406Z,60.60
2018-07-03T07:52:16.762Z,58.90
2018-07-03T07:54:44.121Z,58.50
2018-07-03T07:57:11.493Z,58.30
2018-07-03T07:59:39.507Z,59.30
2018-07-03T08:02:07.787Z,60.10
2018-07-03T08:04:35.807Z,60.80
2018-07-03T08:07:03.815Z,58.30
2018-07-03T08:09:31.830Z,59.30
2018-07-03T08:11:59.838Z,58.40
2018-07-03T08:14:27.855Z,58.00
2018-07-03T08:16:55.866Z,58.10
2018-07-03T08:19:23.882Z,59.20
2018-07-03T08:21:51.971Z,58.80
2018-07-03T08:24:19.986Z,56.10
2018-07-03T08:26:47.999Z,58.40
2018-07-03T08:29:16.019Z,59.10
2018-07-03T08:31:44.038Z,57.20
2018-07-03T08:34:12.062Z,57.50
2018-07-03T08:36:40.083Z,54.40
2018-07-03T08:39:09.651Z,53.80
2018-07-03T08:41:37.666Z,55.90
2018-07-03T08:46:33.189Z,54.20
2018-07-03T08:49:00.557Z,56.20
2018-07-03T08:51:27.917Z,55.50
2018-07-03T08:53:55.941Z,55.80
2018-07-03T08:56:23.430Z,53.20
2018-07-03T08:58:50.786Z,55.00
2018-07-03T09:01:18.158Z,54.20
2018-07-03T09:03:46.178Z,54.20
2018-07-03T09:06:14.190Z,53.00
2018-07-03T09:08:42.206Z,53.20
2018-07-03T09:11:09.567Z,53.70
2018-07-03T09:13:36.951Z,54.30
2018-07-03T09:16:04.321Z,52.00
2018-07-03T09:18:31.734Z,51.60
2018-07-03T09:20:59.130Z,51.90
2018-07-03T09:23:26.494Z,51.10
2018-07-03T09:25:53.973Z,52.30
2018-07-03T09:30:48.522Z,49.10
2018-07-03T09:33:15.878Z,50.60
2018-07-03T09:35:43.235Z,49.80
2018-07-03T09:38:10.622Z,47.00
2018-07-03T09:40:38.974Z,47.30
2018-07-03T09:43:06.370Z,49.00
2018-07-03T09:45:33.742Z,50.00
2018-07-03T09:48:01.131Z,44.50
2018-07-03T09:50:28.490Z,45.50
2018-07-03T09:52:56.042Z,44.90
2018-07-03T09:55:23.438Z,46.80
2018-07-03T09:57:51.026Z,49.20
2018-07-03T10:00:22.710Z,45.60
2018-07-03T10:02:50.729Z,46.40
2018-07-03T10:05:18.750Z,43.50
2018-07-03T10:07:46.770Z,46.00
2018-07-03T10:10:14.121Z,43.10
2018-07-03T10:12:41.519Z,46.30
2018-07-03T10:15:08.850Z,47.50
2018-07-03T10:17:36.871Z,45.50
2018-07-03T10:20:04.994Z,47.50
2018-07-03T10:22:33.014Z,44.90
2018-07-03T10:25:01.022Z,42.60
2018-07-03T10:27:29.042Z,44.60
2018-07-03T10:29:57.056Z,46.80
2018-07-03T10:32:25.066Z,47.60
2018-07-03T10:34:53.087Z,46.70
2018-07-03T10:37:21.102Z,47.40
2018-07-03T10:39:49.122Z,45.00
2018-07-03T10:42:17.136Z,47.10
2018-07-03T10:44:45.151Z,44.10
2018-07-03T10:47:13.175Z,45.10
2018-07-03T10:49:41.364Z,42.80
2018-07-03T10:52:09.414Z,43.20
2018-07-03T10:54:37.438Z,44.10
2018-07-03T10:59:33.314Z,41.90
2018-07-03T11:02:01.294Z,41.80
2018-07-03T11:04:29.501Z,42.90
2018-07-03T11:06:57.510Z,39.50
2018-07-03T11:11:53.331Z,40.10
2018-07-03T11:14:21.346Z,41.10
2018-07-03T11:16:49.366Z,41.00
2018-07-03T11:19:17.386Z,37.90
2018-07-03T11:24:13.362Z,41.10
2018-07-03T11:26:41.374Z,40.50
2018-07-03T11:29:09.392Z,39.80
2018-07-03T11:31:37.410Z,40.40
2018-07-03T11:34:05.443Z,40.50
2018-07-03T11:36:33.459Z,39.50
2018-07-03T11:39:01.474Z,40.20
2018-07-03T11:43:57.385Z,41.20
2018-07-03T11:46:25.396Z,41.90
2018-07-03T11:48:52.753Z,39.00
2018-07-03T11:51:20.770Z,41.50
2018-07-03T11:53:48.138Z,40.00
2018-07-03T11:56:16.151Z,41.00
2018-07-03T11:58:44.179Z,41.50
2018-07-03T12:01:12.190Z,40.50
2018-07-03T12:06:08.016Z,42.50
2018-07-03T12:08:36.027Z,41.90
2018-07-03T12:11:04.047Z,45.10
2018-07-03T12:13:32.090Z,45.60
2018-07-03T12:16:00.107Z,43.10
2018-07-03T12:18:33.543Z,41.60
2018-07-03T12:21:00.910Z,43.10
2018-07-03T12:23:28.274Z,46.20
2018-07-03T12:28:24.166Z,43.50
2018-07-03T12:30:52.182Z,45.50
2018-07-03T12:33:20.203Z,44.90
2018-07-03T12:38:16.046Z,47.50
2018-07-03T12:40:44.110Z,46.10
2018-07-03T12:43:12.126Z,45.80
2018-07-03T12:45:39.502Z,48.10
2018-07-03T12:48:06.854Z,45.50
2018-07-03T12:50:34.862Z,47.70
2018-07-03T12:53:02.887Z,43.80
2018-07-03T12:55:30.281Z,45.00
2018-07-03T12:57:58.282Z,45.90
2018-07-03T13:00:26.291Z,44.80
2018-07-03T13:02:53.654Z,44.40
2018-07-03T13:05:21.895Z,44.90
2018-07-03T13:07:49.258Z,44.20
2018-07-03T13:10:16.614Z,45.70
2018-07-03T13:15:11.965Z,45.10
2018-07-03T13:17:40.030Z,46.80
2018-07-03T13:20:07.406Z,46.80
2018-07-03T13:22:35.426Z,45.70
2018-07-03T13:25:02.804Z,46.40
2018-07-03T13:27:30.830Z,47.90
2018-07-03T13:29:58.862Z,48.70
2018-07-03T13:32:26.876Z,48.30
2018-07-03T13:34:54.229Z,48.80
2018-07-03T13:37:21.592Z,50.20
2018-07-03T13:39:48.997Z,49.30
2018-07-03T13:42:16.353Z,49.30
2018-07-03T13:44:43.753Z,50.80
2018-07-03T13:47:11.129Z,51.70
2018-07-03T13:49:39.146Z,50.00
2018-07-03T13:52:07.162Z,50.20
2018-07-03T13:54:35.182Z,49.20
2018-07-03T13:59:31.023Z,47.10
2018-07-03T14:01:59.030Z,52.50
2018-07-03T14:04:27.051Z,49.50
2018-07-03T14:06:54.410Z,47.50
2018-07-03T14:09:22.422Z,48.50
2018-07-03T14:11:50.439Z,45.60
2018-07-03T14:14:18.497Z,48.20
2018-07-03T14:16:46.469Z,49.60
2018-07-03T14:21:41.650Z,49.30
2018-07-03T14:24:08.985Z,50.00
2018-07-03T14:29:04.899Z,52.10
2018-07-03T14:34:00.746Z,47.50
2018-07-03T14:36:28.812Z,47.10
2018-07-03T14:41:23.945Z,47.40
2018-07-03T14:43:51.265Z,47.00
2018-07-03T14:46:18.634Z,47.80
2018-07-03T14:48:46.647Z,46.80
2018-07-03T14:51:14.662Z,47.90
2018-07-03T14:53:42.679Z,47.00
2018-07-03T14:56:10.694Z,47.30
2018-07-03T14:58:38.069Z,45.60
2018-07-03T15:01:05.430Z,47.70
2018-07-03T15:06:01.263Z,44.80
2018-07-03T15:08:28.621Z,44.00
2018-07-03T15:10:55.985Z,45.20
2018-07-03T15:13:23.346Z,44.00
2018-07-03T15:18:17.873Z,42.90
2018-07-03T15:20:45.234Z,42.50
2018-07-03T15:23:12.597Z,43.90
2018-07-03T15:25:39.957Z,43.30
2018-07-03T15:28:07.315Z,40.40
2018-07-03T15:30:34.693Z,40.90
2018-07-03T15:33:02.075Z,40.60
2018-07-03T15:35:29.498Z,40.30
2018-07-03T15:40:24.070Z,42.00
2018-07-03T15:42:51.435Z,40.30
2018-07-03T15:45:18.794Z,40.50
2018-07-03T15:47:46.161Z,39.00
2018-07-03T15:50:14.048Z,39.90
2018-07-03T15:52:42.063Z,38.40
2018-07-03T15:55:09.946Z,39.50
2018-07-03T15:57:37.311Z,40.90
2018-07-03T16:00:05.590Z,37.90
2018-07-03T16:02:32.957Z,38.80
2018-07-03T16:05:06.674Z,38.40
2018-07-03T16:07:42.465Z,38.70
2018-07-03T16:10:09.838Z,37.40
2018-07-03T16:12:37.299Z,38.00
2018-07-03T16:15:04.884Z,38.00
2018-07-03T16:17:32.898Z,39.00
2018-07-03T16:20:05.902Z,39.20
2018-07-03T16:22:33.259Z,39.00
2018-07-03T16:25:00.684Z,39.60
2018-07-03T16:27:27.986Z,41.00
2018-07-03T16:29:56.012Z,40.30
2018-07-03T16:32:23.370Z,38.90
2018-07-03T16:34:50.837Z,39.90
2018-07-03T16:37:18.186Z,38.50
2018-07-03T16:39:45.545Z,38.00
2018-07-03T16:42:12.911Z,40.00
2018-07-03T16:44:40.281Z,39.30
2018-07-03T16:47:07.637Z,38.60
2018-07-03T16:49:35.006Z,39.20
2018-07-03T16:52:03.030Z,39.10
2018-07-03T16:54:30.395Z,39.40
2018-07-03T16:56:58.414Z,40.00
2018-07-03T16:59:26.445Z,39.10
2018-07-03T17:01:53.819Z,39.70
2018-07-03T17:04:21.870Z,39.30
2018-07-03T17:06:49.249Z,39.50
2018-07-03T17:09:16.601Z,39.90
2018-07-03T17:11:43.966Z,39.60
2018-07-03T17:14:11.535Z,39.70
2018-07-03T17:16:39.277Z,40.50
2018-07-03T17:19:12.834Z,40.00
2018-07-03T17:21:40.209Z,39.40
2018-07-03T17:24:08.226Z,39.70
2018-07-03T17:26:35.630Z,40.10
2018-07-03T17:29:03.146Z,41.70
2018-07-03T17:31:30.585Z,41.10
2018-07-03T17:33:58.654Z,42.00
2018-07-03T17:36:25.962Z,41.60
2018-07-03T17:38:53.978Z,41.90
2018-07-03T17:41:27.126Z,43.00
2018-07-03T17:44:08.332Z,42.90
2018-07-03T17:46:36.351Z,43.60
2018-07-03T17:49:04.646Z,44.70
2018-07-03T17:51:32.922Z,45.80
2018-07-03T17:54:00.934Z,45.90
2018-07-03T17:56:28.959Z,46.30
2018-07-03T17:58:56.974Z,46.70
2018-07-03T18:01:24.990Z,46.40
2018-07-03T18:03:53.010Z,46.30
2018-07-03T18:06:21.026Z,46.20
2018-07-03T18:08:49.510Z,46.70
2018-07-03T18:11:17.722Z,46.40
2018-07-03T18:13:45.763Z,46.80
2018-07-03T18:16:13.851Z,47.60
2018-07-03T18:18:41.870Z,47.60
2018-07-03T18:21:10.312Z,47.60
2018-07-03T18:23:38.339Z,47.70
2018-07-03T18:26:06.672Z,48.20
2018-07-03T18:31:02.943Z,48.40
2018-07-03T18:33:30.978Z,49.80
2018-07-03T18:35:59.098Z,50.20
2018-07-03T18:38:27.149Z,50.00
2018-07-03T18:40:55.190Z,50.00
2018-07-03T18:43:23.207Z,50.10
2018-07-03T18:45:51.238Z,50.60
2018-07-03T18:48:18.602Z,51.30
2018-07-03T18:50:46.663Z,51.70
2018-07-03T18:53:14.022Z,52.30
2018-07-03T18:55:41.410Z,52.90
2018-07-03T18:58:08.797Z,52.80
2018-07-03T19:00:36.246Z,53.10
2018-07-03T19:03:03.622Z,53.40
2018-07-03T19:05:30.997Z,54.20
2018-07-03T19:07:58.362Z,54.10
2018-07-03T19:10:25.739Z,54.60
2018-07-03T19:12:53.202Z,54.90
2018-07-03T19:15:20.634Z,55.20
2018-07-03T19:17:48.734Z,55.60
2018-07-03T19:20:16.850Z,56.00
2018-07-03T19:22:44.890Z,56.30
2018-07-03T19:25:12.286Z,56.60
2018-07-03T19:27:39.686Z,57.30
2018-07-03T19:30:07.235Z,57.60
2018-07-03T19:32:34.571Z,58.20
2018-07-03T19:35:02.009Z,58.30
2018-07-03T19:37:29.398Z,58.50
2018-07-03T19:39:56.766Z,58.80
2018-07-03T19:42:24.162Z,59.30
2018-07-03T19:44:51.534Z,59.30
2018-07-03T19:47:18.962Z,59.60
2018-07-03T19:49:46.326Z,59.70
2018-07-03T19:52:14.343Z,60.20
2018-07-03T19:54:42.380Z,60.00
2018-07-03T19:57:10.410Z,60.30
2018-07-03T19:59:38.434Z,60.70
2018-07-03T20:02:06.547Z,60.80
2018-07-03T20:04:34.511Z,61.20
2018-07-03T20:07:01.871Z,61.60
2018-07-03T20:09:29.256Z,63.00
2018-07-03T20:11:57.277Z,62.90
2018-07-03T20:14:25.286Z,63.50
2018-07-03T20:16:52.765Z,63.40
2018-07-03T20:19:20.149Z,63.50
2018-07-03T20:21:47.542Z,64.00
2018-07-03T20:24:16.273Z,63.90
2018-07-03T20:26:44.407Z,63.40
2018-07-03T20:29:13.134Z,63.60
2018-07-03T20:31:41.150Z,63.60
2018-07-03T20:34:09.187Z,63.90
2018-07-03T20:36:37.489Z,63.90
2018-07-03T20:39:07.559Z,63.80
2018-07-03T20:41:35.602Z,63.90
2018-07-03T20:44:03.657Z,64.10
2018-07-03T20:46:31.745Z,64.20
2018-07-03T20:48:59.825Z,64.80
2018-07-03T20:51:27.185Z,65.40
2018-07-03T20:53:54.561Z,65.70
2018-07-03T20:56:21.917Z,66.00
2018-07-03T20:58:49.933Z,66.30
2018-07-03T21:01:17.301Z,66.40
2018-07-03T21:03:44.750Z,67.00
2018-07-03T21:06:12.172Z,66.80
2018-07-03T21:08:40.092Z,66.80
2018-07-03T21:11:08.102Z,66.90
2018-07-03T21:16:04.027Z,67.40
2018-07-03T21:18:32.058Z,67.30
2018-07-03T21:21:00.083Z,67.00
2018-07-03T21:23:28.183Z,67.20
2018-07-03T21:28:24.001Z,67.60
2018-07-03T21:30:52.031Z,67.80
2018-07-03T21:33:20.047Z,68.20
2018-07-03T21:35:48.071Z,68.90
2018-07-03T21:38:16.091Z,69.30
2018-07-03T21:40:44.106Z,69.90
2018-07-03T21:43:12.128Z,70.40
2018-07-03T21:45:40.155Z,71.10
2018-07-03T21:48:08.188Z,71.90
2018-07-03T21:50:36.242Z,72.30
2018-07-03T21:53:04.309Z,72.80
2018-07-03T21:55:32.334Z,72.70
2018-07-03T21:58:00.355Z,74.00
2018-07-03T22:00:35.722Z,74.00
2018-07-03T22:03:05.033Z,73.70
2018-07-03T22:05:33.053Z,73.90
2018-07-03T22:08:01.122Z,73.10
2018-07-03T22:10:29.175Z,73.90
2018-07-03T22:12:57.186Z,75.80
2018-07-03T22:15:25.206Z,75.30
2018-07-03T22:17:53.236Z,77.30
2018-07-03T22:20:20.617Z,76.00
2018-07-03T22:22:47.978Z,76.30
2018-07-03T22:25:15.339Z,76.40
2018-07-03T22:27:42.693Z,76.20
2018-07-03T22:30:10.050Z,76.40
2018-07-03T22:32:37.521Z,74.60
2018-07-03T22:35:05.082Z,75.60
2018-07-03T22:37:33.100Z,77.00
2018-07-03T22:40:01.126Z,76.70
2018-07-03T22:42:29.135Z,76.40
2018-07-03T22:44:57.150Z,76.70
2018-07-03T22:47:25.312Z,76.30
2018-07-03T22:49:53.330Z,78.00
2018-07-03T22:52:21.347Z,77.20
2018-07-03T22:54:49.362Z,78.40
2018-07-03T22:57:17.375Z,77.30
2018-07-03T22:59:45.391Z,78.20
2018-07-03T23:02:13.398Z,77.30
2018-07-03T23:04:41.407Z,78.50
2018-07-03T23:07:09.422Z,77.90
2018-07-03T23:09:37.442Z,78.10
2018-07-03T23:12:05.603Z,78.60
2018-07-03T23:14:33.654Z,78.50
2018-07-03T23:17:01.682Z,78.80
2018-07-03T23:19:29.682Z,80.00
2018-07-03T23:24:25.594Z,80.00
2018-07-03T23:26:53.846Z,81.00
2018-07-03T23:31:49.710Z,81.50
2018-07-03T23:34:17.727Z,81.70
2018-07-03T23:39:13.550Z,81.90
2018-07-03T23:41:41.567Z,81.30
2018-07-03T23:44:09.579Z,81.30
2018-07-03T23:46:49.182Z,82.40
2018-07-03T23:49:28.798Z,82.60
2018-07-03T23:52:08.370Z,82.40
2018-07-03T23:54:47.818Z,83.10
2018-07-03T23:57:27.215Z,82.50
